Lake Harbor, Florida
Current Conditions -  °F | °C
As of 4:35 PM on Wednesday 26 Nov 2014 (Local Time) from KOBE Reporting Station
Clear Clear  
Wind Chill: 55°   Ceiling: Unl
Heat Index: 55°   Visibility: 10mi
Dew Point: 48°   Wind: 10mph
Humidity: 77%   Direction: 340°NNW
Pressure: 30.14"   Gusts: NA
Location:  26.7°N, 80.81°W
Report Text: KOBE 262135Z AUTO 34009KT 10SM CLR 13/09 A3014 RMK AO2
Loading
Personal Weather Stations






























Interactive Weather Map New forecast layout! Learn more

10-Day Weather Forecast

Advertisements
Track Severe Weather on mobile